MLTMILLINOCKET MUNI
METARs for airports near MLT, sorted by distance:
N 0 nm 408' KMLT 142153Z VRB03KT 10SM CLR 30/17 A2985
NE 47 nm 489' KHUL 142153Z 26005KT 10SM CLR 29/18 A2981
S 50 nm 192' KBGR 142153Z 23006KT 10SM FEW060 31/19 A2986
N 67 nm 534' KPQI 142156Z 24006KT 10SM CLR 29/20 A2982
S 73 nm 83' KBHB 142156Z 21007KT 10SM CLR 31/19 A2987
N 78 nm 620' KCAR 142154Z VRB06KT 10SM CLR 29/18 A2980
SW 79 nm 332' KWVL 142156Z 21007KT 10SM CLR A2986
SW 92 nm 351' KAUG 142153Z 21003KT 10SM CLR 30/19 A2989
S 96 nm 55' KRKD 142156Z 21007KT 10SM CLR 28/19 A2988
N 99 nm 987' KFVE 142153Z 24011KT 10SM CLR 27/18 A2981
TAFs for airports near MLT, sorted by distance:
NE 47 nm 489' KHUL TAF KHUL 141720Z 1418/1518 27006KT P6SM SKC
  FM150000 VRB03KT P6SM FEW250
  FM151600 22008G15KT P6SM SCT200
S 50 nm 192' KBGR TAF KBGR 141720Z 1418/1518 29007KT P6SM SKC
  FM150000 VRB04KT P6SM SKC
  FM151600 20007KT P6SM SCT200
N 67 nm 534' KPQI TAF KPQI 141720Z 1418/1518 27006KT P6SM FEW250
  FM150000 VRB03KT P6SM SKC
  FM151500 22008G15KT P6SM SCT080
S 73 nm 83' KBHB TAF KBHB 141720Z 1418/1518 24008G15KT P6SM SKC
  FM150400 VRB04KT P6SM SKC
  FM151700 20008G15KT P6SM FEW250
N 78 nm 620' KCAR TAF KCAR 141720Z 1418/1518 26007KT P6SM FEW250
  FM150200 VRB04KT P6SM SKC
  FM151500 22008G15KT P6SM SCT070
SW 92 nm 351' KAUG TAF KAUG 141720Z 1418/1518 VRB05KT P6SM FEW070
  FM150900 VRB03KT 6SM BR SCT005
  FM151100 20006KT P6SM SCT200
S 96 nm 55' KRKD KRKD 141720Z 1418/1518 21009KT P6SM FEW200
  FM150900 VRB03KT 4SM BR BKN002
  FM151100 20006KT P6SM SCT200
N 99 nm 987' KFVE TAF KFVE 141720Z 1418/1518 27008G15KT P6SM SCT250
  FM150100 24006KT P6SM SKC
  FM150800 21005KT P6SM FEW250

Shortcut to this page: http://wxbay.com.

Data may contain errors.